createdAt,value
2023-04-07T00:00:04.678Z,85.90
2023-04-07T00:02:33.368Z,85.80
2023-04-07T00:05:02.888Z,86.00
2023-04-07T00:07:31.323Z,86.10
2023-04-07T00:10:01.169Z,86.00
2023-04-07T00:12:29.150Z,86.10
2023-04-07T00:14:57.137Z,86.00
2023-04-07T00:17:25.156Z,86.00
2023-04-07T00:19:53.134Z,85.80
2023-04-07T00:22:21.096Z,86.10
2023-04-07T00:24:49.096Z,85.90
2023-04-07T00:27:18.424Z,86.00
2023-04-07T00:29:46.831Z,85.90
2023-04-07T00:32:15.142Z,86.40
2023-04-07T00:34:43.219Z,86.40
2023-04-07T00:37:11.452Z,86.40
2023-04-07T00:39:40.328Z,86.30
2023-04-07T00:42:08.347Z,86.30
2023-04-07T00:44:37.708Z,86.90
2023-04-07T00:47:05.928Z,87.00
2023-04-07T00:49:34.044Z,86.80
2023-04-07T00:52:02.511Z,86.40
2023-04-07T00:54:31.743Z,86.10
2023-04-07T00:56:59.816Z,86.60
2023-04-07T00:59:29.277Z,86.60
2023-04-07T01:02:04.213Z,86.70
2023-04-07T01:04:36.600Z,86.50
2023-04-07T01:07:10.420Z,86.20
2023-04-07T01:09:42.376Z,86.40
2023-04-07T01:12:17.487Z,87.40
2023-04-07T01:14:53.028Z,87.30
2023-04-07T01:17:25.358Z,88.20
2023-04-07T01:19:59.247Z,87.40
2023-04-07T01:22:32.483Z,87.30
2023-04-07T01:25:30.305Z,87.10
2023-04-07T01:28:11.356Z,87.00
2023-04-07T01:30:42.574Z,86.90
2023-04-07T01:33:12.694Z,86.90
2023-04-07T01:35:42.540Z,87.20
2023-04-07T01:38:12.002Z,87.60
2023-04-07T01:40:41.507Z,87.50
2023-04-07T01:43:09.995Z,87.80
2023-04-07T01:45:40.924Z,87.80
2023-04-07T01:48:09.451Z,87.90
2023-04-07T01:50:38.990Z,87.80
2023-04-07T01:53:07.540Z,87.70
2023-04-07T01:55:36.012Z,88.10
2023-04-07T01:58:06.922Z,89.10
2023-04-07T02:00:34.928Z,89.30
2023-04-07T02:03:11.297Z,89.50
2023-04-07T02:05:40.776Z,89.40
2023-04-07T02:08:12.010Z,88.90
2023-04-07T02:10:40.584Z,88.60
2023-04-07T02:13:11.053Z,88.20
2023-04-07T02:15:40.200Z,88.80
2023-04-07T02:18:12.891Z,89.20
2023-04-07T02:20:42.191Z,89.90
2023-04-07T02:23:10.360Z,90.00
2023-04-07T02:25:39.208Z,89.30
2023-04-07T02:28:07.320Z,88.60
2023-04-07T02:30:35.899Z,88.40
2023-04-07T02:33:03.903Z,88.30
2023-04-07T02:35:33.267Z,88.50
2023-04-07T02:38:01.416Z,88.60
2023-04-07T02:40:29.553Z,88.70
2023-04-07T02:42:57.527Z,88.60
2023-04-07T02:45:25.700Z,88.70
2023-04-07T02:47:54.095Z,88.80
2023-04-07T02:50:22.175Z,88.70
2023-04-07T02:52:51.488Z,88.50
2023-04-07T02:55:19.548Z,88.80
2023-04-07T02:57:47.538Z,88.60
2023-04-07T03:00:16.723Z,88.80
2023-04-07T03:02:44.855Z,88.90
2023-04-07T03:05:13.163Z,89.00
2023-04-07T03:07:41.483Z,89.40
2023-04-07T03:10:11.625Z,89.00
2023-04-07T03:12:39.655Z,89.20
2023-04-07T03:15:08.813Z,89.90
2023-04-07T03:17:36.872Z,89.40
2023-04-07T03:20:05.572Z,90.10
2023-04-07T03:22:33.591Z,90.20
2023-04-07T03:25:01.962Z,90.50
2023-04-07T03:27:31.291Z,90.40
2023-04-07T03:29:59.324Z,90.00
2023-04-07T03:32:27.314Z,90.00
2023-04-07T03:34:55.281Z,90.10
2023-04-07T03:37:23.219Z,89.90
2023-04-07T03:39:52.141Z,90.40
2023-04-07T03:42:20.289Z,90.20
2023-04-07T03:44:49.629Z,89.90
2023-04-07T03:47:17.597Z,90.10
2023-04-07T03:49:46.288Z,90.50
2023-04-07T03:52:15.572Z,90.40
2023-04-07T03:54:43.598Z,90.10
2023-04-07T03:57:11.568Z,90.00
2023-04-07T03:59:39.585Z,89.90
2023-04-07T04:02:09.233Z,89.80
2023-04-07T04:04:37.434Z,89.50
2023-04-07T04:07:05.606Z,89.70
2023-04-07T04:09:33.608Z,89.60
2023-04-07T04:12:01.579Z,89.50
2023-04-07T04:14:29.735Z,90.00
2023-04-07T04:16:57.686Z,90.00
2023-04-07T04:19:27.172Z,89.30
2023-04-07T04:21:55.109Z,88.70
2023-04-07T04:24:23.162Z,88.90
2023-04-07T04:26:51.231Z,88.80
2023-04-07T04:29:19.410Z,88.30
2023-04-07T04:31:47.510Z,88.30
2023-04-07T04:34:15.517Z,88.20
2023-04-07T04:36:44.983Z,87.70
2023-04-07T04:39:12.997Z,87.50
2023-04-07T04:41:40.961Z,87.70
2023-04-07T04:44:09.069Z,87.30
2023-04-07T04:46:37.237Z,87.20
2023-04-07T04:49:06.408Z,87.20
2023-04-07T04:51:34.383Z,87.20
2023-04-07T04:54:06.352Z,88.00
2023-04-07T04:56:34.411Z,88.60
2023-04-07T04:59:02.319Z,88.60
2023-04-07T05:01:32.125Z,88.80
2023-04-07T05:04:01.412Z,88.80
2023-04-07T05:06:29.548Z,89.50
2023-04-07T05:08:57.506Z,89.10
2023-04-07T05:11:26.932Z,90.00
2023-04-07T05:13:54.912Z,90.20
2023-04-07T05:16:22.881Z,89.70
2023-04-07T05:18:51.196Z,90.00
2023-04-07T05:21:20.162Z,89.80
2023-04-07T05:23:48.096Z,89.10
2023-04-07T05:26:16.167Z,89.20
2023-04-07T05:28:45.490Z,89.30
2023-04-07T05:31:13.486Z,89.20
2023-04-07T05:33:41.548Z,89.30
2023-04-07T05:36:09.684Z,89.10
2023-04-07T05:38:37.693Z,88.80
2023-04-07T05:41:05.766Z,88.30
2023-04-07T05:43:33.671Z,87.30
2023-04-07T05:46:02.968Z,87.30
2023-04-07T05:48:30.923Z,86.80
2023-04-07T05:50:58.921Z,86.50
2023-04-07T05:53:27.115Z,85.60
2023-04-07T05:55:55.303Z,85.00
2023-04-07T05:58:23.228Z,84.60
2023-04-07T06:00:51.575Z,84.40
2023-04-07T06:03:21.053Z,84.20
2023-04-07T06:05:49.210Z,83.90
2023-04-07T06:08:17.146Z,83.70
2023-04-07T06:10:45.576Z,83.10
2023-04-07T06:13:13.633Z,83.80
2023-04-07T06:15:41.699Z,83.90
2023-04-07T06:18:09.650Z,83.50
2023-04-07T06:20:38.996Z,82.70
2023-04-07T06:23:07.017Z,83.50
2023-04-07T06:25:34.984Z,82.70
2023-04-07T06:28:02.998Z,83.50
2023-04-07T06:30:31.059Z,83.50
2023-04-07T06:32:59.096Z,83.20
2023-04-07T06:35:27.848Z,82.40
2023-04-07T06:37:57.668Z,83.10
2023-04-07T06:40:25.661Z,82.80
2023-04-07T06:42:54.663Z,81.60
2023-04-07T06:45:22.604Z,80.90
2023-04-07T06:47:50.617Z,81.00
2023-04-07T06:50:20.841Z,80.10
2023-04-07T06:52:48.853Z,80.20
2023-04-07T06:55:18.324Z,81.50
2023-04-07T06:57:46.322Z,81.80
2023-04-07T07:00:15.004Z,82.00
2023-04-07T07:02:43.053Z,81.70
2023-04-07T07:05:11.624Z,82.10
2023-04-07T07:07:39.636Z,81.40
2023-04-07T07:10:09.742Z,81.10
2023-04-07T07:12:39.145Z,82.00
2023-04-07T07:15:08.560Z,81.90
2023-04-07T07:17:36.680Z,81.30
2023-04-07T07:20:05.769Z,80.30
2023-04-07T07:22:33.859Z,80.00
2023-04-07T07:25:01.895Z,79.30
2023-04-07T07:27:29.803Z,79.10
2023-04-07T07:29:59.172Z,78.40
2023-04-07T07:32:27.129Z,77.30
2023-04-07T07:34:55.078Z,77.10
2023-04-07T07:37:23.196Z,78.40
2023-04-07T07:39:51.259Z,75.90
2023-04-07T07:42:19.519Z,75.40
2023-04-07T07:44:47.565Z,76.50
2023-04-07T07:47:17.225Z,76.90
2023-04-07T07:49:45.250Z,75.80
2023-04-07T07:52:13.182Z,74.90
2023-04-07T07:54:41.151Z,75.20
2023-04-07T07:57:09.192Z,76.10
2023-04-07T07:59:37.268Z,74.40
2023-04-07T08:02:05.448Z,75.70
2023-04-07T08:04:34.931Z,75.50
2023-04-07T08:07:03.051Z,74.90
2023-04-07T08:09:32.105Z,75.90
2023-04-07T08:12:00.631Z,76.20
2023-04-07T08:14:28.549Z,75.50
2023-04-07T08:16:57.023Z,75.50
2023-04-07T08:19:25.153Z,75.00
2023-04-07T08:21:54.492Z,74.50
2023-04-07T08:24:22.550Z,74.20
2023-04-07T08:26:50.543Z,74.50
2023-04-07T08:29:18.455Z,74.80
2023-04-07T08:31:46.550Z,73.60
2023-04-07T08:34:14.978Z,74.50
2023-04-07T08:36:44.020Z,73.70
2023-04-07T08:39:13.548Z,71.70
2023-04-07T08:41:44.645Z,71.80
2023-04-07T08:44:14.080Z,71.40
2023-04-07T08:46:42.790Z,71.00
2023-04-07T08:49:13.743Z,70.50
2023-04-07T08:51:47.629Z,69.00
2023-04-07T08:54:21.566Z,66.50
2023-04-07T08:56:49.705Z,67.30
2023-04-07T08:59:18.576Z,64.60
2023-04-07T09:01:48.251Z,64.40
2023-04-07T09:04:16.627Z,64.60
2023-04-07T09:06:45.408Z,65.70
2023-04-07T09:09:14.952Z,66.10
2023-04-07T09:11:44.828Z,65.70
2023-04-07T09:14:13.040Z,65.50
2023-04-07T09:16:41.269Z,65.20
2023-04-07T09:19:09.809Z,67.00
2023-04-07T09:21:51.231Z,65.00
2023-04-07T09:24:23.651Z,63.60
2023-04-07T09:26:52.994Z,65.80
2023-04-07T09:29:21.891Z,66.80
2023-04-07T09:31:51.905Z,65.90
2023-04-07T09:34:27.869Z,64.50
2023-04-07T09:36:56.634Z,63.60
2023-04-07T09:39:24.918Z,64.90
2023-04-07T09:41:54.497Z,62.20
2023-04-07T09:44:23.837Z,62.90
2023-04-07T09:46:53.211Z,61.00
2023-04-07T09:49:21.349Z,63.40
2023-04-07T09:51:56.837Z,59.30
2023-04-07T09:54:35.976Z,62.70
2023-04-07T09:57:06.065Z,63.80
2023-04-07T09:59:35.531Z,60.30
2023-04-07T10:02:03.935Z,60.80
2023-04-07T10:04:32.191Z,60.70
2023-04-07T10:07:01.200Z,63.20
2023-04-07T10:09:30.220Z,61.10
2023-04-07T10:11:59.703Z,60.60
2023-04-07T10:14:31.870Z,60.80
2023-04-07T10:17:02.148Z,60.30
2023-04-07T10:19:33.798Z,61.10
2023-04-07T10:22:04.024Z,59.60
2023-04-07T10:24:46.018Z,62.90
2023-04-07T10:27:18.939Z,60.60
2023-04-07T10:29:51.494Z,62.20
2023-04-07T10:32:19.880Z,62.90
2023-04-07T10:34:58.529Z,63.20
2023-04-07T10:37:28.228Z,64.60
2023-04-07T10:40:30.493Z,61.70
2023-04-07T10:42:59.016Z,60.90
2023-04-07T10:46:03.173Z,62.30
2023-04-07T10:48:33.165Z,62.60
2023-04-07T10:51:17.653Z,61.40
2023-04-07T10:54:18.738Z,59.40
2023-04-07T10:57:07.818Z,61.60
2023-04-07T10:59:35.990Z,63.30
2023-04-07T11:02:36.008Z,61.60
2023-04-07T11:05:04.665Z,60.40
2023-04-07T11:07:55.271Z,61.10
2023-04-07T11:10:23.433Z,62.60
2023-04-07T11:13:06.201Z,63.10
2023-04-07T11:15:35.498Z,63.90
2023-04-07T11:18:23.332Z,63.00
2023-04-07T11:20:54.433Z,63.10
2023-04-07T11:23:25.297Z,62.60
2023-04-07T11:26:00.527Z,62.00
2023-04-07T11:28:28.768Z,63.00
2023-04-07T11:30:58.170Z,62.90
2023-04-07T11:33:29.246Z,62.20
2023-04-07T11:35:59.028Z,61.50
2023-04-07T11:38:29.504Z,62.60
2023-04-07T11:40:58.288Z,62.30
2023-04-07T11:43:27.716Z,62.60
2023-04-07T11:46:06.669Z,61.30
2023-04-07T11:48:37.124Z,62.20
2023-04-07T11:51:05.785Z,60.80
2023-04-07T11:53:35.769Z,62.90
2023-04-07T11:56:05.796Z,63.00
2023-04-07T11:58:33.936Z,63.70
2023-04-07T12:01:08.815Z,61.90
2023-04-07T12:03:39.216Z,63.30
2023-04-07T12:06:08.485Z,62.90
2023-04-07T12:08:41.458Z,62.50
2023-04-07T12:11:10.170Z,63.30
2023-04-07T12:13:39.036Z,62.50
2023-04-07T12:16:07.509Z,63.40
2023-04-07T12:18:36.468Z,63.40
2023-04-07T12:21:06.681Z,64.30
2023-04-07T12:23:34.718Z,64.30
2023-04-07T12:26:03.279Z,64.20
2023-04-07T12:28:31.296Z,63.10
2023-04-07T12:30:59.207Z,64.40
2023-04-07T12:33:27.215Z,63.20
2023-04-07T12:35:55.507Z,63.90
2023-04-07T12:38:25.244Z,62.90
2023-04-07T12:40:53.194Z,61.60
2023-04-07T12:43:21.332Z,61.20
2023-04-07T12:45:49.386Z,62.20
2023-04-07T12:48:18.665Z,61.80
2023-04-07T12:50:46.661Z,63.80
2023-04-07T12:53:14.757Z,62.00
2023-04-07T12:55:44.074Z,63.20
2023-04-07T12:58:12.089Z,63.90
2023-04-07T13:00:40.058Z,63.10
2023-04-07T13:03:08.312Z,62.60
2023-04-07T13:05:36.390Z,62.50
2023-04-07T13:08:04.789Z,62.70
2023-04-07T13:10:32.787Z,62.70
2023-04-07T13:13:02.112Z,63.00
2023-04-07T13:15:30.208Z,62.60
2023-04-07T13:17:58.260Z,61.50
2023-04-07T13:20:28.078Z,61.50
2023-04-07T13:25:28.883Z,61.80
2023-04-07T13:27:56.844Z,62.60
2023-04-07T13:30:26.272Z,61.50
2023-04-07T13:32:54.538Z,61.80
2023-04-07T13:35:22.695Z,60.60
2023-04-07T13:37:50.820Z,63.00
2023-04-07T13:40:18.984Z,63.30
2023-04-07T13:42:47.360Z,60.90
2023-04-07T13:45:15.372Z,60.40
2023-04-07T13:47:46.101Z,62.60
2023-04-07T13:50:14.100Z,62.90
2023-04-07T13:52:42.167Z,62.00
2023-04-07T13:55:11.299Z,62.80
2023-04-07T13:57:39.342Z,64.00
2023-04-07T14:00:08.704Z,63.50
2023-04-07T14:02:36.931Z,62.20
2023-04-07T14:05:07.088Z,61.60
2023-04-07T14:07:35.028Z,61.00
2023-04-07T14:10:03.085Z,60.60
2023-04-07T14:12:31.420Z,61.60
2023-04-07T14:14:59.407Z,61.30
2023-04-07T14:17:27.365Z,61.80
2023-04-07T14:19:55.673Z,63.50
2023-04-07T14:22:25.012Z,64.40
2023-04-07T14:24:53.081Z,62.70
2023-04-07T14:27:22.227Z,61.60
2023-04-07T14:29:50.278Z,63.00
2023-04-07T14:32:18.297Z,64.10
2023-04-07T14:34:46.356Z,61.70
2023-04-07T14:37:16.140Z,62.50
2023-04-07T14:39:55.310Z,61.10
2023-04-07T14:42:27.446Z,62.20
2023-04-07T14:44:55.657Z,61.70
2023-04-07T14:47:23.734Z,60.70
2023-04-07T14:49:53.389Z,61.60
2023-04-07T14:52:22.131Z,60.70
2023-04-07T14:54:51.585Z,60.60
2023-04-07T14:57:19.616Z,61.50
2023-04-07T14:59:48.568Z,60.50
2023-04-07T15:02:17.100Z,61.10
2023-04-07T15:04:45.311Z,60.70
2023-04-07T15:07:13.414Z,59.10
2023-04-07T15:09:41.603Z,58.00
2023-04-07T15:12:10.958Z,58.70
2023-04-07T15:14:38.891Z,59.00
2023-04-07T15:17:06.833Z,59.00
2023-04-07T15:19:34.866Z,58.30
2023-04-07T15:22:02.859Z,58.20
2023-04-07T15:24:30.931Z,58.40
2023-04-07T15:26:58.888Z,57.40
2023-04-07T15:29:28.313Z,58.30
2023-04-07T15:31:56.564Z,59.40
2023-04-07T15:34:24.526Z,59.60
2023-04-07T15:36:52.496Z,59.30
2023-04-07T15:39:20.540Z,58.70
2023-04-07T15:41:48.447Z,58.30
2023-04-07T15:44:19.642Z,57.60
2023-04-07T15:46:49.216Z,59.20
2023-04-07T15:49:23.052Z,58.60
2023-04-07T15:51:52.215Z,59.00
2023-04-07T15:54:20.402Z,59.00
2023-04-07T15:56:48.376Z,59.80
2023-04-07T15:59:16.639Z,63.50
2023-04-07T16:01:44.636Z,66.40
2023-04-07T16:04:14.421Z,67.50
2023-04-07T16:06:42.604Z,67.30
2023-04-07T16:09:10.533Z,68.40
2023-04-07T16:11:38.507Z,68.60
2023-04-07T16:14:08.717Z,69.20
2023-04-07T16:16:38.958Z,69.60
2023-04-07T16:19:06.934Z,69.50
2023-04-07T16:21:39.357Z,68.90
2023-04-07T16:24:07.320Z,69.70
2023-04-07T16:28:30.125Z,66.20
2023-04-07T16:30:58.132Z,64.60
2023-04-07T16:33:28.029Z,64.60
2023-04-07T16:35:56.182Z,65.10
2023-04-07T16:38:24.230Z,65.50
2023-04-07T16:41:03.431Z,65.80
2023-04-07T16:43:33.506Z,65.60
2023-04-07T16:46:01.544Z,65.30
2023-04-07T16:48:30.225Z,64.70
2023-04-07T16:50:58.227Z,65.40
2023-04-07T16:53:26.407Z,65.00
2023-04-07T16:55:54.389Z,65.40
2023-04-07T16:58:22.328Z,63.50
2023-04-07T17:00:51.680Z,64.10
2023-04-07T17:03:19.803Z,65.60
2023-04-07T17:05:48.870Z,64.70
2023-04-07T17:08:16.915Z,64.20
2023-04-07T17:10:44.939Z,64.80
2023-04-07T17:13:12.867Z,66.10
2023-04-07T17:15:41.074Z,69.10
2023-04-07T17:18:10.935Z,69.10
2023-04-07T17:20:39.653Z,69.90
2023-04-07T17:23:08.506Z,69.40
2023-04-07T17:25:36.521Z,70.30
2023-04-07T17:28:04.698Z,70.50
2023-04-07T17:30:33.051Z,70.60
2023-04-07T17:33:01.357Z,70.10
2023-04-07T17:35:31.281Z,70.80
2023-04-07T17:38:02.588Z,70.60
2023-04-07T17:40:31.125Z,70.00
2023-04-07T17:43:00.271Z,71.10
2023-04-07T17:45:28.532Z,71.60
2023-04-07T17:47:57.033Z,71.90
2023-04-07T17:50:25.393Z,71.80
2023-04-07T17:52:54.945Z,73.60
2023-04-07T17:55:23.429Z,73.60
2023-04-07T17:57:52.332Z,74.40
2023-04-07T18:00:22.617Z,74.20
2023-04-07T18:02:51.321Z,75.20
2023-04-07T18:05:20.468Z,76.20
2023-04-07T18:07:49.386Z,75.80
2023-04-07T18:10:19.309Z,74.50
2023-04-07T18:12:47.544Z,74.90
2023-04-07T18:15:16.093Z,73.30
2023-04-07T18:17:44.139Z,72.50
2023-04-07T18:20:13.307Z,72.70
2023-04-07T18:22:42.394Z,72.60
2023-04-07T18:25:11.391Z,72.20
2023-04-07T18:27:40.839Z,72.70
2023-04-07T18:30:10.041Z,73.40
2023-04-07T18:32:38.118Z,74.20
2023-04-07T18:35:07.866Z,73.90
2023-04-07T18:37:36.719Z,74.30
2023-04-07T18:40:05.129Z,74.30
2023-04-07T18:42:33.092Z,74.40
2023-04-07T18:45:02.383Z,74.50
2023-04-07T18:47:30.540Z,74.90
2023-04-07T18:49:58.951Z,75.20
2023-04-07T18:52:27.593Z,76.30
2023-04-07T18:54:56.020Z,76.60
2023-04-07T18:57:24.130Z,77.80
2023-04-07T18:59:52.866Z,79.00
2023-04-07T19:02:22.433Z,79.70
2023-04-07T19:04:50.917Z,80.00
2023-04-07T19:07:18.863Z,81.50
2023-04-07T19:09:47.871Z,81.80
2023-04-07T19:12:15.839Z,81.50
2023-04-07T19:14:43.792Z,82.20
2023-04-07T19:17:12.665Z,81.70
2023-04-07T19:19:41.969Z,82.60
2023-04-07T19:22:09.921Z,83.70
2023-04-07T19:24:37.946Z,85.10
2023-04-07T19:27:06.377Z,85.80
2023-04-07T19:29:35.295Z,86.10
2023-04-07T19:32:03.353Z,86.50
2023-04-07T19:34:31.355Z,87.50
2023-04-07T19:37:00.691Z,88.10
2023-04-07T19:39:29.198Z,88.30
2023-04-07T19:41:57.543Z,88.20
2023-04-07T19:44:27.192Z,88.10
2023-04-07T19:46:55.123Z,87.50
2023-04-07T19:49:23.184Z,87.50
2023-04-07T19:51:54.614Z,87.60
2023-04-07T19:54:24.282Z,88.60
2023-04-07T19:56:52.438Z,88.60
2023-04-07T19:59:20.425Z,89.00
2023-04-07T20:01:48.468Z,89.00
2023-04-07T20:04:16.694Z,89.40
2023-04-07T20:06:44.766Z,89.80
2023-04-07T20:09:12.731Z,89.80
2023-04-07T20:11:42.045Z,90.80
2023-04-07T20:14:09.974Z,91.10
2023-04-07T20:16:37.985Z,91.30
2023-04-07T20:19:05.968Z,91.70
2023-04-07T20:21:33.910Z,91.80
2023-04-07T20:24:02.570Z,92.50
2023-04-07T20:26:30.589Z,92.70
2023-04-07T20:28:59.934Z,93.20
2023-04-07T20:31:28.084Z,93.70
2023-04-07T20:33:56.063Z,93.90
2023-04-07T20:36:24.078Z,94.00
2023-04-07T20:38:52.157Z,93.70
2023-04-07T20:41:22.098Z,93.50
2023-04-07T20:43:51.945Z,93.40
2023-04-07T20:46:21.415Z,93.60
2023-04-07T20:48:49.639Z,93.60
2023-04-07T20:51:17.912Z,93.70
2023-04-07T20:53:45.882Z,93.70
2023-04-07T20:56:14.203Z,93.80
2023-04-07T20:58:42.389Z,93.80
2023-04-07T21:01:10.414Z,93.90
2023-04-07T21:03:40.011Z,94.20
2023-04-07T21:06:08.625Z,93.80
2023-04-07T21:08:36.535Z,93.90
2023-04-07T21:11:04.568Z,94.20
2023-04-07T21:13:32.516Z,94.10
2023-04-07T21:16:01.351Z,94.60
2023-04-07T21:18:29.465Z,94.40
2023-04-07T21:21:01.934Z,94.80
2023-04-07T21:23:31.723Z,94.50
2023-04-07T21:26:02.947Z,94.40
2023-04-07T21:28:30.973Z,94.40
2023-04-07T21:30:59.185Z,94.40
2023-04-07T21:33:27.143Z,95.10
2023-04-07T21:35:55.437Z,95.40
2023-04-07T21:38:24.837Z,94.90
2023-04-07T21:40:52.854Z,95.30
2023-04-07T21:43:22.069Z,95.30
2023-04-07T21:45:50.227Z,95.20
2023-04-07T21:48:20.746Z,95.40
2023-04-07T21:50:48.669Z,95.90
2023-04-07T21:53:16.598Z,95.90
2023-04-07T21:55:46.951Z,95.90
2023-04-07T21:58:15.421Z,96.40
2023-04-07T22:00:43.478Z,96.00
2023-04-07T22:03:11.896Z,95.70
2023-04-07T22:05:40.359Z,96.20
2023-04-07T22:08:08.375Z,95.90
2023-04-07T22:10:36.422Z,95.90
2023-04-07T22:13:06.160Z,96.00
2023-04-07T22:15:34.432Z,96.10
2023-04-07T22:18:03.686Z,96.60
2023-04-07T22:20:31.982Z,96.40
2023-04-07T22:23:00.074Z,96.30
2023-04-07T22:25:28.021Z,96.40
2023-04-07T22:27:56.803Z,96.80
2023-04-07T22:30:26.434Z,97.10
2023-04-07T22:32:54.475Z,97.90
2023-04-07T22:35:22.456Z,97.90
2023-04-07T22:37:50.399Z,97.70
2023-04-07T22:40:18.335Z,97.20
2023-04-07T22:42:46.279Z,97.10
2023-04-07T22:45:14.497Z,98.10
2023-04-07T22:47:44.004Z,98.10
2023-04-07T22:50:12.748Z,98.00
2023-04-07T22:52:41.094Z,97.70
2023-04-07T22:55:10.110Z,97.80
2023-04-07T22:57:38.096Z,97.60
2023-04-07T23:00:07.390Z,97.70
2023-04-07T23:02:35.510Z,97.50
2023-04-07T23:05:07.920Z,97.50
2023-04-07T23:07:36.204Z,97.40
2023-04-07T23:10:04.287Z,97.30
2023-04-07T23:12:32.292Z,97.20
2023-04-07T23:15:00.338Z,97.20
2023-04-07T23:17:28.686Z,97.00
2023-04-07T23:19:56.686Z,97.30
2023-04-07T23:22:26.167Z,96.90
2023-04-07T23:24:54.350Z,97.30
2023-04-07T23:27:22.294Z,97.50
2023-04-07T23:29:51.430Z,97.30
2023-04-07T23:32:19.533Z,97.40
2023-04-07T23:34:47.497Z,97.20
2023-04-07T23:37:15.476Z,96.80
2023-04-07T23:39:44.829Z,97.10
2023-04-07T23:42:12.793Z,97.20
2023-04-07T23:44:40.731Z,97.10
2023-04-07T23:47:09.309Z,97.10
2023-04-07T23:49:37.564Z,97.50
2023-04-07T23:52:06.084Z,97.30
2023-04-07T23:54:34.007Z,97.50
2023-04-07T23:57:03.585Z,97.50
2023-04-07T23:59:32.055Z,97.30
